Commanda, Canada
Current Conditions -  °F | °C
As of 9:00 PM on Wednesday 22 Oct 2014 (Local Time) from CYYB Reporting Station
Clear Clear  
Wind Chill: 36°   Ceiling: Unl
Heat Index: 39°   Visibility: 15mi
Dew Point: 32°   Wind: 5mph
Humidity: 75%   Direction: 360°N
Pressure: 30.29"   Gusts: NA
Location:  45.95°N, 79.6°W
Report Text: CYYB 230100Z 36004KT 15SM SKC 04/M00 A3029 RMK SLP273
Loading
Personal Weather Stations






























Interactive Weather Map
Tropical Storm Tracking
New forecast layout! Learn more

10-Day Weather Forecast

Advertisements
Track Severe Weather on mobile